LFMP 210400Z AUTO 33020KT CAVOK 06/M01 Q1026 TEMPO 32020G35KT

ElémentsDécodage
LFMP Station météo située sur l'aérodrome de PERPIGNAN Rivesaltes
210400Z émis le 21 du mois à 04h00 UTC
AUTO Bulletin édité par un automate
33020KT vent du 330°, 20 noeuds
CAVOK Ceiling And Visibility OK
- Visibilité de 10 Km ou plus
- Pas de nuage au-dessous de 1500m ou au-dessous de l'altitude minimale du secteur la plus élevée (si>1500m) et absence de CB
- pas de temps présent significatif
06/M01 température 06°C, point de rosée -01°C
 soit une humidité relative de 61%
Q1026 la pression au niveau de la mer (QNH) est de 1026 hPa
TEMPO fluctuation temporaire prévue
32020G35KT vent du 320°, moyenne: 20 noeuds, avec rafales à 35 noeuds